sensor_id;sensor_type;location;lat;lon;timestamp;temperature;humidity
13561;DHT22;6852;51.686;5.314;2023-03-23T00:01:53;12.30;99.90
13561;DHT22;6852;51.686;5.314;2023-03-23T00:04:19;12.30;99.90
13561;DHT22;6852;51.686;5.314;2023-03-23T00:06:46;12.30;99.90
13561;DHT22;6852;51.686;5.314;2023-03-23T00:09:13;12.30;99.90
13561;DHT22;6852;51.686;5.314;2023-03-23T00:11:41;12.30;99.90
13561;DHT22;6852;51.686;5.314;2023-03-23T00:14:08;12.30;99.90
13561;DHT22;6852;51.686;5.314;2023-03-23T00:16:39;12.30;99.90
13561;DHT22;6852;51.686;5.314;2023-03-23T00:19:15;12.30;99.90
13561;DHT22;6852;51.686;5.314;2023-03-23T00:21:43;12.30;99.90
13561;DHT22;6852;51.686;5.314;2023-03-23T00:24:16;12.40;99.90
13561;DHT22;6852;51.686;5.314;2023-03-23T00:26:44;12.40;99.90
13561;DHT22;6852;51.686;5.314;2023-03-23T00:31:42;12.40;99.90
13561;DHT22;6852;51.686;5.314;2023-03-23T00:34:12;12.40;99.90
13561;DHT22;6852;51.686;5.314;2023-03-23T00:36:38;12.40;99.90
13561;DHT22;6852;51.686;5.314;2023-03-23T00:39:08;12.30;99.90
13561;DHT22;6852;51.686;5.314;2023-03-23T00:41:34;12.30;99.90
13561;DHT22;6852;51.686;5.314;2023-03-23T00:44:03;12.30;99.90
13561;DHT22;6852;51.686;5.314;2023-03-23T00:46:29;12.30;99.90
13561;DHT22;6852;51.686;5.314;2023-03-23T00:48:56;12.30;99.90
13561;DHT22;6852;51.686;5.314;2023-03-23T00:51:23;12.30;99.90
13561;DHT22;6852;51.686;5.314;2023-03-23T00:53:49;12.30;99.90
13561;DHT22;6852;51.686;5.314;2023-03-23T00:56:15;12.30;99.90
13561;DHT22;6852;51.686;5.314;2023-03-23T00:58:41;12.20;99.90
13561;DHT22;6852;51.686;5.314;2023-03-23T01:01:08;12.20;99.90
13561;DHT22;6852;51.686;5.314;2023-03-23T01:03:34;12.20;99.90
13561;DHT22;6852;51.686;5.314;2023-03-23T01:06:05;12.30;99.90
13561;DHT22;6852;51.686;5.314;2023-03-23T01:08:31;12.20;99.90
13561;DHT22;6852;51.686;5.314;2023-03-23T01:11:06;12.20;99.90
13561;DHT22;6852;51.686;5.314;2023-03-23T01:13:33;12.20;99.90
13561;DHT22;6852;51.686;5.314;2023-03-23T01:15:59;12.20;99.90
13561;DHT22;6852;51.686;5.314;2023-03-23T01:18:24;12.20;99.90
13561;DHT22;6852;51.686;5.314;2023-03-23T01:20:50;12.30;99.90
13561;DHT22;6852;51.686;5.314;2023-03-23T01:23:16;12.20;99.90
13561;DHT22;6852;51.686;5.314;2023-03-23T01:25:42;12.20;99.90
13561;DHT22;6852;51.686;5.314;2023-03-23T01:28:08;12.20;99.90
13561;DHT22;6852;51.686;5.314;2023-03-23T01:30:35;12.20;99.90
13561;DHT22;6852;51.686;5.314;2023-03-23T01:33:01;12.20;99.90
13561;DHT22;6852;51.686;5.314;2023-03-23T01:35:27;12.30;99.90
13561;DHT22;6852;51.686;5.314;2023-03-23T01:37:54;12.20;99.90
13561;DHT22;6852;51.686;5.314;2023-03-23T01:40:20;12.30;99.90
13561;DHT22;6852;51.686;5.314;2023-03-23T01:42:45;12.30;99.90
13561;DHT22;6852;51.686;5.314;2023-03-23T01:45:30;12.40;99.90
13561;DHT22;6852;51.686;5.314;2023-03-23T01:53:16;12.40;99.90
13561;DHT22;6852;51.686;5.314;2023-03-23T01:55:44;12.50;99.90
13561;DHT22;6852;51.686;5.314;2023-03-23T01:58:15;12.50;99.90
13561;DHT22;6852;51.686;5.314;2023-03-23T02:00:42;12.50;99.90
13561;DHT22;6852;51.686;5.314;2023-03-23T02:03:09;12.50;99.90
13561;DHT22;6852;51.686;5.314;2023-03-23T02:05:39;12.50;99.90
13561;DHT22;6852;51.686;5.314;2023-03-23T02:08:06;12.50;99.90
13561;DHT22;6852;51.686;5.314;2023-03-23T02:10:35;12.50;99.90
13561;DHT22;6852;51.686;5.314;2023-03-23T02:13:03;12.60;99.90
13561;DHT22;6852;51.686;5.314;2023-03-23T02:15:41;12.60;99.90
13561;DHT22;6852;51.686;5.314;2023-03-23T02:21:10;12.70;99.90
13561;DHT22;6852;51.686;5.314;2023-03-23T02:26:55;12.60;99.90
13561;DHT22;6852;51.686;5.314;2023-03-23T02:35:34;12.70;99.90
13561;DHT22;6852;51.686;5.314;2023-03-23T02:38:15;12.70;99.90
13561;DHT22;6852;51.686;5.314;2023-03-23T02:40:45;12.70;99.90
13561;DHT22;6852;51.686;5.314;2023-03-23T02:43:18;12.80;99.90
13561;DHT22;6852;51.686;5.314;2023-03-23T02:45:46;12.80;99.90
13561;DHT22;6852;51.686;5.314;2023-03-23T02:48:14;12.80;99.90
13561;DHT22;6852;51.686;5.314;2023-03-23T02:50:45;12.80;99.90
13561;DHT22;6852;51.686;5.314;2023-03-23T02:53:16;12.80;99.90
13561;DHT22;6852;51.686;5.314;2023-03-23T02:55:44;12.80;99.90
13561;DHT22;6852;51.686;5.314;2023-03-23T02:58:12;12.80;99.90
13561;DHT22;6852;51.686;5.314;2023-03-23T03:00:38;12.90;99.90
13561;DHT22;6852;51.686;5.314;2023-03-23T03:03:08;12.90;99.90
13561;DHT22;6852;51.686;5.314;2023-03-23T03:08:50;12.90;99.90
13561;DHT22;6852;51.686;5.314;2023-03-23T03:11:18;12.90;99.90
13561;DHT22;6852;51.686;5.314;2023-03-23T03:16:40;12.90;99.90
13561;DHT22;6852;51.686;5.314;2023-03-23T03:19:19;12.90;99.90
13561;DHT22;6852;51.686;5.314;2023-03-23T03:21:47;12.90;99.90
13561;DHT22;6852;51.686;5.314;2023-03-23T03:24:18;12.90;99.90
13561;DHT22;6852;51.686;5.314;2023-03-23T03:26:46;12.90;99.90
13561;DHT22;6852;51.686;5.314;2023-03-23T03:29:21;12.90;99.90
13561;DHT22;6852;51.686;5.314;2023-03-23T03:31:50;12.90;99.90
13561;DHT22;6852;51.686;5.314;2023-03-23T03:34:16;12.90;99.90
13561;DHT22;6852;51.686;5.314;2023-03-23T03:36:46;12.90;99.90
13561;DHT22;6852;51.686;5.314;2023-03-23T03:39:14;12.90;99.90
13561;DHT22;6852;51.686;5.314;2023-03-23T03:41:42;13.00;99.90
13561;DHT22;6852;51.686;5.314;2023-03-23T03:44:08;12.90;99.90
13561;DHT22;6852;51.686;5.314;2023-03-23T03:46:35;12.90;99.90
13561;DHT22;6852;51.686;5.314;2023-03-23T03:49:04;12.90;99.90
13561;DHT22;6852;51.686;5.314;2023-03-23T03:51:31;12.90;99.90
13561;DHT22;6852;51.686;5.314;2023-03-23T03:53:57;12.90;99.90
13561;DHT22;6852;51.686;5.314;2023-03-23T03:56:24;12.90;99.90
13561;DHT22;6852;51.686;5.314;2023-03-23T03:58:50;12.90;99.90
13561;DHT22;6852;51.686;5.314;2023-03-23T04:01:18;12.90;99.90
13561;DHT22;6852;51.686;5.314;2023-03-23T04:03:44;12.90;99.90
13561;DHT22;6852;51.686;5.314;2023-03-23T04:06:10;12.90;99.90
13561;DHT22;6852;51.686;5.314;2023-03-23T04:08:39;12.90;99.90
13561;DHT22;6852;51.686;5.314;2023-03-23T04:11:07;12.90;99.90
13561;DHT22;6852;51.686;5.314;2023-03-23T04:13:34;12.80;99.90
13561;DHT22;6852;51.686;5.314;2023-03-23T04:16:00;12.80;99.90
13561;DHT22;6852;51.686;5.314;2023-03-23T04:18:26;12.80;99.90
13561;DHT22;6852;51.686;5.314;2023-03-23T04:20:52;12.80;99.90
13561;DHT22;6852;51.686;5.314;2023-03-23T04:23:20;12.80;99.90
13561;DHT22;6852;51.686;5.314;2023-03-23T04:25:48;12.80;99.90
13561;DHT22;6852;51.686;5.314;2023-03-23T04:28:16;12.80;99.90
13561;DHT22;6852;51.686;5.314;2023-03-23T04:30:44;12.80;99.90
13561;DHT22;6852;51.686;5.314;2023-03-23T04:33:11;12.80;99.90
13561;DHT22;6852;51.686;5.314;2023-03-23T04:35:43;12.80;99.90
13561;DHT22;6852;51.686;5.314;2023-03-23T04:38:12;12.80;99.90
13561;DHT22;6852;51.686;5.314;2023-03-23T04:40:40;12.70;99.90
13561;DHT22;6852;51.686;5.314;2023-03-23T04:43:06;12.70;99.90
13561;DHT22;6852;51.686;5.314;2023-03-23T04:45:33;12.70;99.90
13561;DHT22;6852;51.686;5.314;2023-03-23T04:47:59;12.70;99.90
13561;DHT22;6852;51.686;5.314;2023-03-23T04:50:29;12.70;99.90
13561;DHT22;6852;51.686;5.314;2023-03-23T04:52:57;12.70;99.90
13561;DHT22;6852;51.686;5.314;2023-03-23T04:55:24;12.70;99.90
13561;DHT22;6852;51.686;5.314;2023-03-23T04:57:51;12.70;99.90
13561;DHT22;6852;51.686;5.314;2023-03-23T05:00:18;12.60;99.90
13561;DHT22;6852;51.686;5.314;2023-03-23T05:02:45;12.60;99.90
13561;DHT22;6852;51.686;5.314;2023-03-23T05:05:18;12.60;99.90
13561;DHT22;6852;51.686;5.314;2023-03-23T05:07:44;12.60;99.90
13561;DHT22;6852;51.686;5.314;2023-03-23T05:10:12;12.60;99.90
13561;DHT22;6852;51.686;5.314;2023-03-23T05:12:38;12.60;99.90
13561;DHT22;6852;51.686;5.314;2023-03-23T05:15:05;12.60;99.90
13561;DHT22;6852;51.686;5.314;2023-03-23T05:17:32;12.50;99.90
13561;DHT22;6852;51.686;5.314;2023-03-23T05:20:00;12.50;99.90
13561;DHT22;6852;51.686;5.314;2023-03-23T05:22:29;12.60;99.90
13561;DHT22;6852;51.686;5.314;2023-03-23T05:24:58;12.50;99.90
13561;DHT22;6852;51.686;5.314;2023-03-23T05:27:24;12.50;99.90
13561;DHT22;6852;51.686;5.314;2023-03-23T05:29:53;12.50;99.90
13561;DHT22;6852;51.686;5.314;2023-03-23T05:32:19;12.50;99.90
13561;DHT22;6852;51.686;5.314;2023-03-23T05:34:45;12.50;99.90
13561;DHT22;6852;51.686;5.314;2023-03-23T05:37:12;12.50;99.90
13561;DHT22;6852;51.686;5.314;2023-03-23T05:39:39;12.50;99.90
13561;DHT22;6852;51.686;5.314;2023-03-23T05:42:05;12.50;99.90
13561;DHT22;6852;51.686;5.314;2023-03-23T05:44:32;12.50;99.90
13561;DHT22;6852;51.686;5.314;2023-03-23T05:46:57;12.50;99.90
13561;DHT22;6852;51.686;5.314;2023-03-23T05:49:23;12.50;99.90
13561;DHT22;6852;51.686;5.314;2023-03-23T05:51:50;12.50;99.90
13561;DHT22;6852;51.686;5.314;2023-03-23T05:54:16;12.50;99.90
13561;DHT22;6852;51.686;5.314;2023-03-23T05:56:42;12.50;99.90
13561;DHT22;6852;51.686;5.314;2023-03-23T05:59:09;12.50;99.90
13561;DHT22;6852;51.686;5.314;2023-03-23T06:01:36;12.50;99.90
13561;DHT22;6852;51.686;5.314;2023-03-23T06:04:03;12.50;99.90
13561;DHT22;6852;51.686;5.314;2023-03-23T06:06:29;12.50;99.90
13561;DHT22;6852;51.686;5.314;2023-03-23T06:08:56;12.50;99.90
13561;DHT22;6852;51.686;5.314;2023-03-23T06:11:23;12.50;99.90
13561;DHT22;6852;51.686;5.314;2023-03-23T06:13:50;12.50;99.90
13561;DHT22;6852;51.686;5.314;2023-03-23T06:16:16;12.50;99.90
13561;DHT22;6852;51.686;5.314;2023-03-23T06:18:42;12.50;99.90
13561;DHT22;6852;51.686;5.314;2023-03-23T06:21:11;12.50;99.90
13561;DHT22;6852;51.686;5.314;2023-03-23T06:23:38;12.50;99.90
13561;DHT22;6852;51.686;5.314;2023-03-23T06:26:06;12.50;99.90
13561;DHT22;6852;51.686;5.314;2023-03-23T06:28:33;12.50;99.90
13561;DHT22;6852;51.686;5.314;2023-03-23T06:31:00;12.40;99.90
13561;DHT22;6852;51.686;5.314;2023-03-23T06:33:27;12.40;99.90
13561;DHT22;6852;51.686;5.314;2023-03-23T06:35:53;12.30;99.90
13561;DHT22;6852;51.686;5.314;2023-03-23T06:38:19;12.30;99.90
13561;DHT22;6852;51.686;5.314;2023-03-23T06:40:45;12.20;99.90
13561;DHT22;6852;51.686;5.314;2023-03-23T06:43:12;12.20;99.90
13561;DHT22;6852;51.686;5.314;2023-03-23T06:45:39;12.10;99.90
13561;DHT22;6852;51.686;5.314;2023-03-23T06:48:05;11.90;99.90
13561;DHT22;6852;51.686;5.314;2023-03-23T06:50:32;11.90;99.90
13561;DHT22;6852;51.686;5.314;2023-03-23T06:52:58;11.90;99.90
13561;DHT22;6852;51.686;5.314;2023-03-23T06:55:23;11.80;99.90
13561;DHT22;6852;51.686;5.314;2023-03-23T06:57:49;11.80;99.90
13561;DHT22;6852;51.686;5.314;2023-03-23T07:00:15;11.80;99.90
13561;DHT22;6852;51.686;5.314;2023-03-23T07:02:42;11.70;99.90
13561;DHT22;6852;51.686;5.314;2023-03-23T07:05:09;11.60;99.90
13561;DHT22;6852;51.686;5.314;2023-03-23T07:07:36;11.50;99.90
13561;DHT22;6852;51.686;5.314;2023-03-23T07:10:05;11.40;99.90
13561;DHT22;6852;51.686;5.314;2023-03-23T07:12:31;11.40;99.90
13561;DHT22;6852;51.686;5.314;2023-03-23T07:14:58;11.40;99.90
13561;DHT22;6852;51.686;5.314;2023-03-23T07:17:25;11.40;99.90
13561;DHT22;6852;51.686;5.314;2023-03-23T07:19:50;11.30;99.90
13561;DHT22;6852;51.686;5.314;2023-03-23T07:22:17;11.30;99.90
13561;DHT22;6852;51.686;5.314;2023-03-23T07:24:42;11.30;99.90
13561;DHT22;6852;51.686;5.314;2023-03-23T07:27:08;11.30;99.90
13561;DHT22;6852;51.686;5.314;2023-03-23T07:29:34;11.30;99.90
13561;DHT22;6852;51.686;5.314;2023-03-23T07:32:04;11.30;99.90
13561;DHT22;6852;51.686;5.314;2023-03-23T07:34:31;11.40;99.90
13561;DHT22;6852;51.686;5.314;2023-03-23T07:36:57;11.30;99.90
13561;DHT22;6852;51.686;5.314;2023-03-23T07:39:24;11.30;99.90
13561;DHT22;6852;51.686;5.314;2023-03-23T07:41:51;11.30;99.90
13561;DHT22;6852;51.686;5.314;2023-03-23T07:44:17;11.30;99.90
13561;DHT22;6852;51.686;5.314;2023-03-23T07:46:43;11.20;99.90
13561;DHT22;6852;51.686;5.314;2023-03-23T07:49:09;11.20;99.90
13561;DHT22;6852;51.686;5.314;2023-03-23T07:51:35;11.20;99.90
13561;DHT22;6852;51.686;5.314;2023-03-23T07:54:04;11.10;99.90
13561;DHT22;6852;51.686;5.314;2023-03-23T07:56:30;11.10;99.90
13561;DHT22;6852;51.686;5.314;2023-03-23T07:58:57;11.00;99.90
13561;DHT22;6852;51.686;5.314;2023-03-23T08:01:23;11.00;99.90
13561;DHT22;6852;51.686;5.314;2023-03-23T08:03:51;11.00;99.90
13561;DHT22;6852;51.686;5.314;2023-03-23T08:06:20;11.00;99.90
13561;DHT22;6852;51.686;5.314;2023-03-23T08:08:47;11.00;99.90
13561;DHT22;6852;51.686;5.314;2023-03-23T08:11:12;11.00;99.90
13561;DHT22;6852;51.686;5.314;2023-03-23T08:13:41;11.00;99.90
13561;DHT22;6852;51.686;5.314;2023-03-23T08:16:08;11.00;99.90
13561;DHT22;6852;51.686;5.314;2023-03-23T08:18:35;11.00;99.90
13561;DHT22;6852;51.686;5.314;2023-03-23T08:21:02;11.00;99.90
13561;DHT22;6852;51.686;5.314;2023-03-23T08:23:30;11.00;99.90
13561;DHT22;6852;51.686;5.314;2023-03-23T08:25:56;10.90;99.90
13561;DHT22;6852;51.686;5.314;2023-03-23T08:28:22;10.90;99.90
13561;DHT22;6852;51.686;5.314;2023-03-23T08:30:49;10.80;99.90
13561;DHT22;6852;51.686;5.314;2023-03-23T08:33:15;10.90;99.90
13561;DHT22;6852;51.686;5.314;2023-03-23T08:35:41;10.90;99.90
13561;DHT22;6852;51.686;5.314;2023-03-23T08:38:09;10.90;99.90
13561;DHT22;6852;51.686;5.314;2023-03-23T08:40:37;10.90;99.90
13561;DHT22;6852;51.686;5.314;2023-03-23T08:43:05;10.90;99.90
13561;DHT22;6852;51.686;5.314;2023-03-23T08:45:31;11.10;99.90
13561;DHT22;6852;51.686;5.314;2023-03-23T08:47:57;11.10;99.90
13561;DHT22;6852;51.686;5.314;2023-03-23T08:50:26;11.10;99.90
13561;DHT22;6852;51.686;5.314;2023-03-23T08:52:53;11.10;99.90
13561;DHT22;6852;51.686;5.314;2023-03-23T08:55:21;11.10;99.90
13561;DHT22;6852;51.686;5.314;2023-03-23T08:57:47;11.10;99.90
13561;DHT22;6852;51.686;5.314;2023-03-23T09:00:18;11.10;99.90
13561;DHT22;6852;51.686;5.314;2023-03-23T09:02:48;11.10;99.90
13561;DHT22;6852;51.686;5.314;2023-03-23T09:05:21;11.10;99.90
13561;DHT22;6852;51.686;5.314;2023-03-23T09:07:49;11.20;99.90
13561;DHT22;6852;51.686;5.314;2023-03-23T09:10:16;11.30;99.90
13561;DHT22;6852;51.686;5.314;2023-03-23T09:12:44;11.30;99.90
13561;DHT22;6852;51.686;5.314;2023-03-23T09:15:14;11.30;99.90
13561;DHT22;6852;51.686;5.314;2023-03-23T09:17:45;11.40;99.90
13561;DHT22;6852;51.686;5.314;2023-03-23T09:20:13;11.80;99.90
13561;DHT22;6852;51.686;5.314;2023-03-23T09:22:40;12.20;99.90
13561;DHT22;6852;51.686;5.314;2023-03-23T09:25:08;12.50;99.90
13561;DHT22;6852;51.686;5.314;2023-03-23T09:27:35;12.70;99.90
13561;DHT22;6852;51.686;5.314;2023-03-23T09:30:04;13.00;99.90
13561;DHT22;6852;51.686;5.314;2023-03-23T09:32:33;13.00;99.90
13561;DHT22;6852;51.686;5.314;2023-03-23T09:35:01;13.00;99.90
13561;DHT22;6852;51.686;5.314;2023-03-23T09:37:28;13.10;99.90
13561;DHT22;6852;51.686;5.314;2023-03-23T09:39:53;13.30;99.90
13561;DHT22;6852;51.686;5.314;2023-03-23T09:42:57;13.40;99.90
13561;DHT22;6852;51.686;5.314;2023-03-23T09:48:41;13.70;99.90
13561;DHT22;6852;51.686;5.314;2023-03-23T09:54:11;13.40;99.90
13561;DHT22;6852;51.686;5.314;2023-03-23T09:56:39;13.40;99.90
13561;DHT22;6852;51.686;5.314;2023-03-23T09:59:13;13.40;99.90
13561;DHT22;6852;51.686;5.314;2023-03-23T10:01:45;13.30;99.90
13561;DHT22;6852;51.686;5.314;2023-03-23T10:04:36;13.30;99.90
13561;DHT22;6852;51.686;5.314;2023-03-23T10:07:26;13.70;99.90
13561;DHT22;6852;51.686;5.314;2023-03-23T10:09:55;13.90;99.90
13561;DHT22;6852;51.686;5.314;2023-03-23T10:13:04;13.80;99.90
13561;DHT22;6852;51.686;5.314;2023-03-23T10:15:21;13.80;99.90
13561;DHT22;6852;51.686;5.314;2023-03-23T10:20:59;13.60;99.90
13561;DHT22;6852;51.686;5.314;2023-03-23T10:23:51;13.90;99.90
13561;DHT22;6852;51.686;5.314;2023-03-23T10:26:26;13.70;99.90
13561;DHT22;6852;51.686;5.314;2023-03-23T10:31:35;13.90;99.90
13561;DHT22;6852;51.686;5.314;2023-03-23T10:34:31;13.80;99.90
13561;DHT22;6852;51.686;5.314;2023-03-23T10:37:09;13.90;99.90
13561;DHT22;6852;51.686;5.314;2023-03-23T10:40:03;14.20;99.90
13561;DHT22;6852;51.686;5.314;2023-03-23T10:42:36;14.10;99.90
13561;DHT22;6852;51.686;5.314;2023-03-23T10:45:26;14.00;99.90
13561;DHT22;6852;51.686;5.314;2023-03-23T10:47:56;14.10;99.90
13561;DHT22;6852;51.686;5.314;2023-03-23T10:50:31;14.20;99.90
13561;DHT22;6852;51.686;5.314;2023-03-23T10:52:59;14.10;99.90
13561;DHT22;6852;51.686;5.314;2023-03-23T10:55:37;14.30;99.90
13561;DHT22;6852;51.686;5.314;2023-03-23T10:58:09;14.60;99.90
13561;DHT22;6852;51.686;5.314;2023-03-23T11:00:43;14.80;99.90
13561;DHT22;6852;51.686;5.314;2023-03-23T11:05:47;14.70;99.90
13561;DHT22;6852;51.686;5.314;2023-03-23T11:08:21;14.50;99.90
13561;DHT22;6852;51.686;5.314;2023-03-23T11:13:16;14.40;99.90
13561;DHT22;6852;51.686;5.314;2023-03-23T11:15:45;14.80;99.90
13561;DHT22;6852;51.686;5.314;2023-03-23T11:20:43;15.20;99.90
13561;DHT22;6852;51.686;5.314;2023-03-23T11:23:26;15.50;99.90
13561;DHT22;6852;51.686;5.314;2023-03-23T11:28:32;15.20;99.90
13561;DHT22;6852;51.686;5.314;2023-03-23T11:31:01;15.00;99.90
13561;DHT22;6852;51.686;5.314;2023-03-23T11:33:37;14.90;99.90
13561;DHT22;6852;51.686;5.314;2023-03-23T11:36:06;15.00;99.90
13561;DHT22;6852;51.686;5.314;2023-03-23T11:38:32;15.00;99.90
13561;DHT22;6852;51.686;5.314;2023-03-23T11:40:59;15.30;99.90
13561;DHT22;6852;51.686;5.314;2023-03-23T11:43:26;15.40;99.90
13561;DHT22;6852;51.686;5.314;2023-03-23T11:48:49;16.20;99.90
13561;DHT22;6852;51.686;5.314;2023-03-23T11:51:39;15.90;99.90
13561;DHT22;6852;51.686;5.314;2023-03-23T11:56:47;15.70;99.90
13561;DHT22;6852;51.686;5.314;2023-03-23T11:59:25;15.80;99.90
13561;DHT22;6852;51.686;5.314;2023-03-23T12:01:56;15.60;99.90
13561;DHT22;6852;51.686;5.314;2023-03-23T12:07:27;15.30;99.90
13561;DHT22;6852;51.686;5.314;2023-03-23T12:10:24;15.50;99.90
13561;DHT22;6852;51.686;5.314;2023-03-23T12:13:27;15.60;99.90
13561;DHT22;6852;51.686;5.314;2023-03-23T12:18:51;15.50;99.90
13561;DHT22;6852;51.686;5.314;2023-03-23T12:30:03;15.20;99.90
13561;DHT22;6852;51.686;5.314;2023-03-23T12:41:08;15.60;99.90
13561;DHT22;6852;51.686;5.314;2023-03-23T12:49:17;16.40;99.90
13561;DHT22;6852;51.686;5.314;2023-03-23T12:52:16;16.50;99.90
13561;DHT22;6852;51.686;5.314;2023-03-23T13:03:14;15.70;99.90
13561;DHT22;6852;51.686;5.314;2023-03-23T13:05:46;15.70;99.90
13561;DHT22;6852;51.686;5.314;2023-03-23T13:11:04;16.20;99.90
13561;DHT22;6852;51.686;5.314;2023-03-23T13:13:50;15.80;99.90
13561;DHT22;6852;51.686;5.314;2023-03-23T13:19:51;15.40;99.90
13561;DHT22;6852;51.686;5.314;2023-03-23T13:22:39;15.30;99.90
13561;DHT22;6852;51.686;5.314;2023-03-23T13:25:14;15.20;99.90
13561;DHT22;6852;51.686;5.314;2023-03-23T13:27:41;15.10;99.90
13561;DHT22;6852;51.686;5.314;2023-03-23T13:30:19;15.10;99.90
13561;DHT22;6852;51.686;5.314;2023-03-23T13:32:50;15.00;99.90
13561;DHT22;6852;51.686;5.314;2023-03-23T13:35:18;15.00;99.90
13561;DHT22;6852;51.686;5.314;2023-03-23T13:37:49;15.00;99.90
13561;DHT22;6852;51.686;5.314;2023-03-23T13:40:27;15.00;99.90
13561;DHT22;6852;51.686;5.314;2023-03-23T13:42:56;14.90;99.90
13561;DHT22;6852;51.686;5.314;2023-03-23T13:50:53;15.20;99.90
13561;DHT22;6852;51.686;5.314;2023-03-23T13:53:46;15.40;99.90
13561;DHT22;6852;51.686;5.314;2023-03-23T13:56:36;15.50;99.90
13561;DHT22;6852;51.686;5.314;2023-03-23T13:59:32;15.60;99.90
13561;DHT22;6852;51.686;5.314;2023-03-23T14:02:27;15.90;99.90
13561;DHT22;6852;51.686;5.314;2023-03-23T14:04:54;16.30;99.90
13561;DHT22;6852;51.686;5.314;2023-03-23T14:07:20;16.50;99.90
13561;DHT22;6852;51.686;5.314;2023-03-23T14:09:46;16.40;99.90
13561;DHT22;6852;51.686;5.314;2023-03-23T14:12:22;16.10;99.90
13561;DHT22;6852;51.686;5.314;2023-03-23T14:14:56;16.30;99.90
13561;DHT22;6852;51.686;5.314;2023-03-23T14:17:29;16.40;99.90
13561;DHT22;6852;51.686;5.314;2023-03-23T14:19:57;16.00;99.90
13561;DHT22;6852;51.686;5.314;2023-03-23T14:22:32;16.00;99.90
13561;DHT22;6852;51.686;5.314;2023-03-23T14:25:12;16.10;99.90
13561;DHT22;6852;51.686;5.314;2023-03-23T14:27:39;16.20;99.90
13561;DHT22;6852;51.686;5.314;2023-03-23T14:30:18;16.20;99.90
13561;DHT22;6852;51.686;5.314;2023-03-23T14:32:44;16.20;99.90
13561;DHT22;6852;51.686;5.314;2023-03-23T14:35:27;16.00;99.90
13561;DHT22;6852;51.686;5.314;2023-03-23T14:37:55;15.90;99.90
13561;DHT22;6852;51.686;5.314;2023-03-23T14:40:21;15.90;99.90
13561;DHT22;6852;51.686;5.314;2023-03-23T14:42:47;15.70;99.90
13561;DHT22;6852;51.686;5.314;2023-03-23T14:45:18;15.70;99.90
13561;DHT22;6852;51.686;5.314;2023-03-23T14:48:08;15.70;99.90
13561;DHT22;6852;51.686;5.314;2023-03-23T14:53:32;15.90;99.90
13561;DHT22;6852;51.686;5.314;2023-03-23T14:56:11;15.90;99.90
13561;DHT22;6852;51.686;5.314;2023-03-23T14:58:38;16.10;99.90
13561;DHT22;6852;51.686;5.314;2023-03-23T15:01:10;16.10;99.90
13561;DHT22;6852;51.686;5.314;2023-03-23T15:06:21;16.30;99.90
13561;DHT22;6852;51.686;5.314;2023-03-23T15:08:49;16.30;99.90
13561;DHT22;6852;51.686;5.314;2023-03-23T15:13:46;16.00;99.90
13561;DHT22;6852;51.686;5.314;2023-03-23T15:21:45;15.80;99.90
13561;DHT22;6852;51.686;5.314;2023-03-23T15:24:23;15.90;99.90
13561;DHT22;6852;51.686;5.314;2023-03-23T15:26:50;15.60;99.90
13561;DHT22;6852;51.686;5.314;2023-03-23T15:31:47;15.40;99.90
13561;DHT22;6852;51.686;5.314;2023-03-23T15:34:34;15.30;99.90
13561;DHT22;6852;51.686;5.314;2023-03-23T15:37:06;15.30;99.90
13561;DHT22;6852;51.686;5.314;2023-03-23T15:39:40;15.30;99.90
13561;DHT22;6852;51.686;5.314;2023-03-23T15:42:07;15.30;99.90
13561;DHT22;6852;51.686;5.314;2023-03-23T15:45:14;15.30;99.90
13561;DHT22;6852;51.686;5.314;2023-03-23T15:47:44;15.50;99.90
13561;DHT22;6852;51.686;5.314;2023-03-23T15:50:18;15.50;99.90
13561;DHT22;6852;51.686;5.314;2023-03-23T15:52:45;15.60;99.90
13561;DHT22;6852;51.686;5.314;2023-03-23T15:55:26;15.50;99.90
13561;DHT22;6852;51.686;5.314;2023-03-23T15:57:54;15.40;99.90
13561;DHT22;6852;51.686;5.314;2023-03-23T16:00:24;15.20;99.90
13561;DHT22;6852;51.686;5.314;2023-03-23T16:03:01;15.20;99.90
13561;DHT22;6852;51.686;5.314;2023-03-23T16:05:30;15.20;99.90
13561;DHT22;6852;51.686;5.314;2023-03-23T16:07:57;15.30;99.90
13561;DHT22;6852;51.686;5.314;2023-03-23T16:10:25;15.20;99.90
13561;DHT22;6852;51.686;5.314;2023-03-23T16:12:52;15.20;99.90
13561;DHT22;6852;51.686;5.314;2023-03-23T16:15:19;15.20;99.90
13561;DHT22;6852;51.686;5.314;2023-03-23T16:17:46;15.40;99.90
13561;DHT22;6852;51.686;5.314;2023-03-23T16:20:23;15.30;99.90
13561;DHT22;6852;51.686;5.314;2023-03-23T16:22:51;15.30;99.90
13561;DHT22;6852;51.686;5.314;2023-03-23T16:25:18;15.30;99.90
13561;DHT22;6852;51.686;5.314;2023-03-23T16:27:46;15.20;99.90
13561;DHT22;6852;51.686;5.314;2023-03-23T16:30:24;15.10;99.90
13561;DHT22;6852;51.686;5.314;2023-03-23T16:32:52;15.00;99.90
13561;DHT22;6852;51.686;5.314;2023-03-23T16:35:23;15.10;99.90
13561;DHT22;6852;51.686;5.314;2023-03-23T16:37:52;15.10;99.90
13561;DHT22;6852;51.686;5.314;2023-03-23T16:40:36;15.20;99.90
13561;DHT22;6852;51.686;5.314;2023-03-23T16:43:03;15.30;99.90
13561;DHT22;6852;51.686;5.314;2023-03-23T16:45:36;15.20;99.90
13561;DHT22;6852;51.686;5.314;2023-03-23T16:48:04;15.00;99.90
13561;DHT22;6852;51.686;5.314;2023-03-23T16:50:31;15.00;99.90
13561;DHT22;6852;51.686;5.314;2023-03-23T16:52:58;14.80;99.90
13561;DHT22;6852;51.686;5.314;2023-03-23T16:55:25;14.80;99.90
13561;DHT22;6852;51.686;5.314;2023-03-23T16:57:53;14.70;99.90
13561;DHT22;6852;51.686;5.314;2023-03-23T17:00:34;14.60;99.90
13561;DHT22;6852;51.686;5.314;2023-03-23T17:03:01;14.60;99.90
13561;DHT22;6852;51.686;5.314;2023-03-23T17:05:29;14.60;99.90
13561;DHT22;6852;51.686;5.314;2023-03-23T17:07:56;14.60;99.90
13561;DHT22;6852;51.686;5.314;2023-03-23T17:10:25;14.60;99.90
13561;DHT22;6852;51.686;5.314;2023-03-23T17:12:54;14.60;99.90
13561;DHT22;6852;51.686;5.314;2023-03-23T17:15:21;14.60;99.90
13561;DHT22;6852;51.686;5.314;2023-03-23T17:17:50;14.60;99.90
13561;DHT22;6852;51.686;5.314;2023-03-23T17:20:18;14.60;99.90
13561;DHT22;6852;51.686;5.314;2023-03-23T17:22:45;14.60;99.90
13561;DHT22;6852;51.686;5.314;2023-03-23T17:25:12;14.60;99.90
13561;DHT22;6852;51.686;5.314;2023-03-23T17:27:39;14.60;99.90
13561;DHT22;6852;51.686;5.314;2023-03-23T17:30:07;14.60;99.90
13561;DHT22;6852;51.686;5.314;2023-03-23T17:32:34;14.50;99.90
13561;DHT22;6852;51.686;5.314;2023-03-23T17:35:03;14.50;99.90
13561;DHT22;6852;51.686;5.314;2023-03-23T17:37:31;14.30;99.90
13561;DHT22;6852;51.686;5.314;2023-03-23T17:39:58;14.30;99.90
13561;DHT22;6852;51.686;5.314;2023-03-23T17:42:25;14.50;99.90
13561;DHT22;6852;51.686;5.314;2023-03-23T17:44:52;14.40;99.90
13561;DHT22;6852;51.686;5.314;2023-03-23T17:47:19;14.30;99.90
13561;DHT22;6852;51.686;5.314;2023-03-23T17:49:46;14.30;99.90
13561;DHT22;6852;51.686;5.314;2023-03-23T17:52:13;14.30;99.90
13561;DHT22;6852;51.686;5.314;2023-03-23T17:54:40;14.20;99.90
13561;DHT22;6852;51.686;5.314;2023-03-23T17:57:07;14.20;99.90
13561;DHT22;6852;51.686;5.314;2023-03-23T17:59:34;14.10;99.90
13561;DHT22;6852;51.686;5.314;2023-03-23T18:02:01;14.10;99.90